Time;durP1;ratioP1;P1;durP2;ratioP2;P2;SDS_P1;SDS_P2;PMS_P1;PMS_P2;Temp;Humidity;BMP_temperature;BMP_pressure;BME280_temperature;BME280_humidity;BME280_pressure;Samples;Min_cycle;Max_cycle;Signal;HPM_P1;HPM_P2
2023/08/09 04:04:34;;;;;;;6.65;3.55;;;;;;;12.41;100.00;100578.84;5359482;33;32565;-81
2023/08/09 04:07:38;;;;;;;4.37;3.28;;;;;;;12.43;100.00;100588.44;5348190;33;34043;-83
2023/08/09 04:10:40;;;;;;;5.20;3.30;;;;;;;12.51;100.00;100590.19;5360211;33;33539;-83
2023/08/09 04:13:43;;;;;;;4.53;3.30;;;;;;;12.64;100.00;100595.81;5336349;33;33419;-83
2023/08/09 04:16:46;;;;;;;6.97;3.08;;;;;;;12.79;100.00;100598.50;5367385;33;33797;-83
2023/08/09 04:19:49;;;;;;;4.70;3.20;;;;;;;12.86;100.00;100596.72;5364408;33;34018;-83
2023/08/09 04:22:52;;;;;;;7.80;4.05;;;;;;;13.00;100.00;100605.00;5347590;33;34518;-83
2023/08/09 04:25:57;;;;;;;4.37;3.33;;;;;;;13.04;100.00;100606.31;5360828;33;33928;-83
2023/08/09 04:29:00;;;;;;;5.07;3.37;;;;;;;13.08;100.00;100597.66;5360788;33;33690;-83
2023/08/09 04:32:03;;;;;;;6.82;3.47;;;;;;;13.21;100.00;100596.97;5347649;33;34229;-83
2023/08/09 04:35:09;;;;;;;5.43;3.37;;;;;;;13.41;100.00;100593.69;5360727;33;34063;-83
2023/08/09 04:38:13;;;;;;;4.50;3.20;;;;;;;13.55;100.00;100587.41;5360673;33;33888;-83
2023/08/09 04:41:15;;;;;;;4.80;3.40;;;;;;;13.77;100.00;100589.06;5347185;33;33664;-83
2023/08/09 04:44:18;;;;;;;7.57;3.50;;;;;;;13.99;100.00;100591.78;5360384;33;34777;-83
2023/08/09 04:47:21;;;;;;;9.63;3.70;;;;;;;14.12;100.00;100597.28;5358512;33;33819;-82
2023/08/09 04:50:24;;;;;;;5.95;3.87;;;;;;;14.19;100.00;100598.19;5360843;33;33852;-82
2023/08/09 04:53:27;;;;;;;6.97;3.70;;;;;;;14.29;100.00;100592.41;5359187;33;34423;-86
2023/08/09 04:56:31;;;;;;;7.40;3.25;;;;;;;14.45;100.00;100596.69;5347373;33;33783;-86
2023/08/09 04:59:33;;;;;;;6.18;3.47;;;;;;;14.42;100.00;100597.09;5360428;33;33932;-86
2023/08/09 05:02:37;;;;;;;6.95;3.42;;;;;;;14.39;100.00;100598.34;5339694;33;33811;-86
2023/08/09 05:05:40;;;;;;;7.12;3.75;;;;;;;14.38;100.00;100593.94;5391864;33;35308;-83
2023/08/09 05:08:44;;;;;;;3.55;2.97;;;;;;;14.38;100.00;100591.22;5383058;33;35074;-83
2023/08/09 05:11:46;;;;;;;6.43;3.55;;;;;;;14.49;100.00;100596.09;5379365;33;34313;-83
2023/08/09 05:14:49;;;;;;;7.40;3.55;;;;;;;14.55;100.00;100596.41;5377109;33;33877;-83
2023/08/09 05:17:52;;;;;;;5.85;3.65;;;;;;;14.60;100.00;100605.59;5377123;33;33550;-83
2023/08/09 05:20:56;;;;;;;7.80;3.40;;;;;;;14.71;100.00;100607.75;5378298;33;33424;-83
2023/08/09 05:23:58;;;;;;;6.72;3.70;;;;;;;14.87;100.00;100608.47;5364877;33;33893;-83
2023/08/09 05:27:02;;;;;;;4.45;3.28;;;;;;;15.02;100.00;100614.59;5376907;33;34093;-83
2023/08/09 05:30:06;;;;;;;4.35;3.10;;;;;;;15.13;100.00;100615.91;5376741;33;33778;-83
2023/08/09 05:33:09;;;;;;;9.65;3.53;;;;;;;15.30;100.00;100617.22;5379470;33;33767;-82
2023/08/09 05:36:12;;;;;;;8.25;3.60;;;;;;;15.39;100.00;100620.59;5380302;33;34213;-82
2023/08/09 05:39:15;;;;;;;4.50;3.40;;;;;;;15.59;100.00;100620.63;5375960;33;33521;-83
2023/08/09 05:42:17;;;;;;;6.22;4.10;;;;;;;15.61;100.00;100619.38;5376431;33;34463;-83
2023/08/09 05:45:21;;;;;;;6.55;3.55;;;;;;;15.61;100.00;100615.84;5376761;33;33698;-83
2023/08/09 05:48:23;;;;;;;8.63;3.40;;;;;;;15.55;100.00;100611.22;5378182;33;34876;-83
2023/08/09 05:51:26;;;;;;;5.75;3.72;;;;;;;15.73;100.00;100602.53;5376317;33;34709;-83
2023/08/09 05:54:29;;;;;;;6.12;3.85;;;;;;;15.90;100.00;100601.09;5376698;33;34670;-83
2023/08/09 05:57:32;;;;;;;5.40;3.72;;;;;;;16.07;100.00;100610.50;5378305;33;34067;-82
2023/08/09 06:00:35;;;;;;;5.78;3.58;;;;;;;16.24;100.00;100599.25;5378749;33;35522;-83
2023/08/09 06:03:39;;;;;;;5.50;3.67;;;;;;;16.39;100.00;100607.19;5379706;33;33503;-83
2023/08/09 06:06:42;;;;;;;5.90;3.80;;;;;;;16.55;100.00;100599.44;5379453;33;33831;-83
2023/08/09 06:09:45;;;;;;;7.78;3.87;;;;;;;16.60;100.00;100606.94;5368036;33;34790;-83
2023/08/09 06:13:05;;;;;;;8.00;4.22;;;;;;;16.80;100.00;100604.19;5380133;33;34241;-83
2023/08/09 06:16:08;;;;;;;6.78;3.42;;;;;;;16.70;100.00;100596.47;5380027;33;33856;-83
2023/08/09 06:19:12;;;;;;;4.15;2.92;;;;;;;16.94;100.00;100594.97;5370674;33;33809;-83
2023/08/09 06:22:15;;;;;;;6.78;3.62;;;;;;;17.11;100.00;100587.16;5389693;33;34605;-83
2023/08/09 06:25:19;;;;;;;5.50;3.10;;;;;;;17.21;100.00;100598.41;5381943;33;33900;-83
2023/08/09 06:28:22;;;;;;;7.65;3.03;;;;;;;17.36;100.00;100603.56;5378471;33;33588;-83
2023/08/09 06:31:25;;;;;;;6.75;3.25;;;;;;;17.53;100.00;100609.34;5378383;33;34361;-83
2023/08/09 06:34:28;;;;;;;5.87;3.20;;;;;;;17.67;100.00;100607.38;5378520;33;34707;-83
2023/08/09 06:37:30;;;;;;;9.68;3.58;;;;;;;17.79;100.00;100611.09;5380007;33;33952;-83
2023/08/09 06:40:34;;;;;;;4.25;3.35;;;;;;;17.88;100.00;100595.34;5366638;33;33780;-83
2023/08/09 06:43:36;;;;;;;6.07;3.22;;;;;;;18.12;100.00;100602.69;5378623;33;34628;-83
2023/08/09 06:46:39;;;;;;;5.97;2.95;;;;;;;18.42;100.00;100601.16;5366663;33;34998;-83
2023/08/09 06:49:42;;;;;;;7.90;2.97;;;;;;;18.50;100.00;100603.63;5380057;33;33747;-83
2023/08/09 06:52:46;;;;;;;3.90;2.60;;;;;;;18.70;100.00;100600.69;5378639;33;34310;-83
2023/08/09 06:55:49;;;;;;;6.62;2.60;;;;;;;18.96;100.00;100599.59;5379067;33;34026;-83
2023/08/09 06:58:52;;;;;;;5.45;2.80;;;;;;;19.16;100.00;100605.66;5382407;33;34593;-83
2023/08/09 07:01:55;;;;;;;6.50;2.75;;;;;;;19.27;100.00;100598.56;5379732;33;33697;-83
2023/08/09 07:05:01;;;;;;;4.32;2.70;;;;;;;19.52;100.00;100601.19;5378941;33;34702;-86
2023/08/09 07:08:04;;;;;;;2.75;2.40;;;;;;;19.69;98.95;100602.22;5379408;33;33967;-87
2023/08/09 07:11:08;;;;;;;3.20;2.33;;;;;;;19.73;98.44;100593.56;5379836;33;33685;-87
2023/08/09 07:14:10;;;;;;;5.90;2.67;;;;;;;19.74;99.85;100597.97;5377986;33;34648;-83
2023/08/09 07:17:13;;;;;;;4.62;3.10;;;;;;;19.96;97.81;100593.63;5378174;33;33930;-84
2023/08/09 07:20:16;;;;;;;4.87;2.87;;;;;;;20.09;97.54;100596.13;5377968;33;35276;-83
2023/08/09 07:23:19;;;;;;;3.85;2.50;;;;;;;20.22;97.62;100594.28;5390028;33;34548;-83
2023/08/09 07:26:42;;;;;;;3.53;2.50;;;;;;;20.27;96.34;100595.22;5378003;33;33715;-83
2023/08/09 07:29:45;;;;;;;6.90;2.55;;;;;;;20.47;81.93;100589.37;5379130;33;33439;-83
2023/08/09 07:32:50;;;;;;;5.35;2.53;;;;;;;20.36;81.22;100592.97;5379573;33;33643;-83
2023/08/09 07:35:54;;;;;;;4.70;2.60;;;;;;;20.60;80.17;100586.47;5383287;33;34180;-83
2023/08/09 07:38:58;;;;;;;3.12;2.78;;;;;;;20.92;76.32;100588.78;5393441;33;33652;-82
2023/08/09 07:42:02;;;;;;;4.68;2.50;;;;;;;21.06;75.57;100590.19;5379764;33;34434;-83
2023/08/09 07:45:06;;;;;;;5.65;2.67;;;;;;;21.28;74.31;100578.56;5386425;33;33667;-81
2023/08/09 07:48:09;;;;;;;3.20;2.45;;;;;;;21.45;72.85;100576.75;5396174;33;35273;-81
2023/08/09 07:51:13;;;;;;;3.60;2.60;;;;;;;21.69;71.12;100580.19;5384174;33;35050;-81
2023/08/09 07:54:16;;;;;;;4.07;2.47;;;;;;;22.01;73.24;100581.56;5378703;33;34062;-81
2023/08/09 07:57:18;;;;;;;6.37;2.12;;;;;;;22.31;68.36;100576.59;5379321;33;33894;-81
2023/08/09 08:00:24;;;;;;;3.35;2.20;;;;;;;22.46;67.45;100583.41;5377745;33;34711;-81
2023/08/09 08:03:36;;;;;;;2.87;2.10;;;;;;;22.32;67.21;100581.03;5378158;33;33835;-81
2023/08/09 08:06:39;;;;;;;3.60;1.75;;;;;;;22.33;67.79;100581.84;5378264;33;33857;-82
2023/08/09 08:09:43;;;;;;;1.42;1.30;;;;;;;22.60;67.34;100584.72;5384467;33;33487;-81
2023/08/09 08:12:48;;;;;;;1.85;1.60;;;;;;;22.59;64.03;100583.06;5382237;33;33940;-81
2023/08/09 08:15:52;;;;;;;2.10;1.60;;;;;;;22.62;65.64;100583.38;5379285;33;34585;-83
2023/08/09 08:18:55;;;;;;;4.00;1.75;;;;;;;22.59;64.91;100583.88;5388149;33;34473;-81
2023/08/09 08:21:58;;;;;;;2.15;1.77;;;;;;;22.73;63.54;100581.62;5387293;33;34132;-81
2023/08/09 08:25:01;;;;;;;3.78;1.90;;;;;;;22.73;62.38;100586.28;5388237;33;34347;-81
2023/08/09 08:28:05;;;;;;;2.75;2.00;;;;;;;22.47;63.06;100585.09;5388198;33;33964;-81
2023/08/09 08:31:08;;;;;;;5.22;2.10;;;;;;;22.33;64.99;100588.16;5388450;33;34756;-81
2023/08/09 08:34:11;;;;;;;7.55;3.22;;;;;;;22.60;63.81;100585.53;5379147;33;33762;-81
2023/08/09 08:37:14;;;;;;;4.68;2.00;;;;;;;22.48;65.31;100586.72;5365645;33;34415;-81
2023/08/09 08:40:21;;;;;;;3.35;1.90;;;;;;;22.45;65.23;100579.00;5377822;33;33995;-81
2023/08/09 08:43:24;;;;;;;4.28;1.42;;;;;;;22.45;66.22;100589.97;5377597;33;33502;-81
2023/08/09 08:46:28;;;;;;;2.08;1.80;;;;;;;22.65;65.15;100593.03;5377587;33;33355;-81
2023/08/09 08:49:34;;;;;;;1.77;1.48;;;;;;;22.71;63.44;100586.53;5378649;33;33773;-81
2023/08/09 08:52:42;;;;;;;4.20;1.87;;;;;;;22.78;62.79;100578.91;5379100;33;34604;-85
2023/08/09 08:55:45;;;;;;;2.53;1.48;;;;;;;23.11;64.93;100579.94;5379524;33;33969;-85
2023/08/09 08:58:49;;;;;;;3.00;1.98;;;;;;;23.69;64.23;100580.28;5378186;33;33519;-82
2023/08/09 09:01:51;;;;;;;2.20;1.58;;;;;;;24.08;62.45;100582.87;5379372;33;34791;-81
2023/08/09 09:04:54;;;;;;;1.60;1.40;;;;;;;23.89;61.14;100586.00;5379124;33;34751;-81
2023/08/09 09:07:57;;;;;;;1.98;1.33;;;;;;;23.80;62.46;100575.75;5380834;33;33846;-81
2023/08/09 09:11:00;;;;;;;3.47;1.77;;;;;;;23.87;61.84;100571.69;5379992;33;33947;-81
2023/08/09 09:14:15;;;;;;;2.55;1.60;;;;;;;23.71;61.20;100572.63;5389975;33;34132;-81
2023/08/09 09:17:21;;;;;;;3.45;1.50;;;;;;;23.50;62.81;100569.66;5368437;33;33769;-81
2023/08/09 09:20:33;;;;;;;4.37;1.98;;;;;;;23.56;63.06;100567.78;5358659;33;33787;-81
2023/08/09 09:23:38;;;;;;;2.80;1.70;;;;;;;23.24;63.14;100563.06;5359975;33;33806;-81
2023/08/09 09:26:53;;;;;;;2.40;1.40;;;;;;;23.33;65.24;100568.91;5358629;33;34058;-81
2023/08/09 09:30:01;;;;;;;1.77;1.20;;;;;;;23.21;60.91;100570.97;5358566;33;33520;-81
2023/08/09 09:33:04;;;;;;;3.50;1.62;;;;;;;23.03;61.81;100572.97;5360722;33;33796;-81
2023/08/09 09:36:11;;;;;;;2.37;1.60;;;;;;;23.10;62.29;100575.50;5360691;33;33861;-81
2023/08/09 09:39:14;;;;;;;2.22;1.50;;;;;;;22.79;63.00;100568.78;5363892;33;33441;-81
2023/08/09 09:42:29;;;;;;;3.12;1.50;;;;;;;22.74;65.73;100568.72;5367309;33;34032;-81
2023/08/09 09:45:32;;;;;;;1.60;1.48;;;;;;;23.04;64.17;100568.31;5361875;33;33590;-81
2023/08/09 09:48:36;;;;;;;2.17;1.40;;;;;;;23.18;63.16;100575.06;5360862;33;33908;-81
2023/08/09 09:51:38;;;;;;;2.10;1.25;;;;;;;23.47;62.32;100566.59;5359981;33;34906;-81
2023/08/09 09:54:41;;;;;;;2.80;1.37;;;;;;;23.59;61.63;100570.03;5361818;33;33948;-81
2023/08/09 09:57:44;;;;;;;3.17;1.85;;;;;;;23.67;64.18;100568.72;5361818;33;33468;-81
2023/08/09 10:00:53;;;;;;;3.00;1.65;;;;;;;23.47;62.31;100572.09;5360637;33;33706;-82
2023/08/09 10:04:06;;;;;;;2.37;1.42;;;;;;;23.91;62.04;100567.31;5361503;33;33849;-81
2023/08/09 10:07:11;;;;;;;3.20;1.80;;;;;;;24.16;59.48;100561.22;5361609;33;33507;-81
2023/08/09 10:10:15;;;;;;;2.58;1.62;;;;;;;24.43;58.90;100552.06;5361705;33;33579;-80
2023/08/09 10:13:21;;;;;;;2.97;1.67;;;;;;;24.36;59.49;100551.44;5360586;33;33849;-85
2023/08/09 10:16:28;;;;;;;4.62;1.55;;;;;;;24.94;59.24;100546.81;5361801;33;34802;-82
2023/08/09 10:19:31;;;;;;;3.47;1.62;;;;;;;25.38;55.38;100546.44;5361627;33;34625;-82
2023/08/09 10:22:34;;;;;;;1.92;1.30;;;;;;;25.22;57.31;100536.47;5360227;33;33564;-82
2023/08/09 10:25:45;;;;;;;1.20;1.02;;;;;;;25.17;57.00;100534.53;5360249;33;33649;-82
2023/08/09 10:28:49;;;;;;;1.20;1.10;;;;;;;24.73;56.88;100529.38;5361631;33;34379;-82
2023/08/09 10:32:02;;;;;;;1.02;0.95;;;;;;;24.74;53.42;100530.19;5361171;33;34373;-81
2023/08/09 10:35:06;;;;;;;1.12;1.02;;;;;;;24.99;51.79;100524.81;5364717;33;33938;-81
2023/08/09 10:38:13;;;;;;;1.27;1.00;;;;;;;24.80;54.16;100531.87;5372279;33;33923;-82
2023/08/09 10:41:16;;;;;;;1.20;0.95;;;;;;;24.43;52.78;100522.63;5379915;33;33513;-81
2023/08/09 10:44:32;;;;;;;2.47;0.95;;;;;;;24.17;53.45;100538.09;5378289;33;33881;-82
2023/08/09 10:47:35;;;;;;;3.70;1.05;;;;;;;24.05;53.89;100520.12;5382825;33;33861;-81
2023/08/09 10:50:38;;;;;;;0.90;0.90;;;;;;;24.40;56.24;100530.56;5383548;33;33329;-81
2023/08/09 10:54:04;;;;;;;1.40;1.08;;;;;;;24.41;52.06;100523.94;5367373;33;34904;-81
2023/08/09 10:57:09;;;;;;;1.17;1.10;;;;;;;24.35;52.98;100533.28;5379714;33;33486;-82
2023/08/09 11:00:13;;;;;;;1.62;1.12;;;;;;;24.35;55.37;100527.75;5378665;33;34672;-81
2023/08/09 11:03:17;;;;;;;2.65;1.00;;;;;;;24.48;53.13;100527.31;5380400;33;33861;-81
2023/08/09 11:06:46;;;;;;;1.00;0.98;;;;;;;24.38;55.01;100530.81;5380587;33;35141;-81
2023/08/09 11:09:49;;;;;;;1.30;1.20;;;;;;;24.85;52.77;100524.47;5381213;33;33933;-81
2023/08/09 11:12:54;;;;;;;2.33;1.27;;;;;;;25.01;52.76;100530.03;5379691;33;33743;-81
2023/08/09 11:16:05;;;;;;;3.20;1.50;;;;;;;24.67;53.14;100531.28;5379535;33;33656;-82
2023/08/09 11:19:11;;;;;;;1.00;0.88;;;;;;;24.93;53.59;100525.88;5379607;33;34013;-85
2023/08/09 11:22:30;;;;;;;1.62;1.23;;;;;;;25.25;52.87;100516.66;5379506;33;33730;-82
2023/08/09 11:25:33;;;;;;;1.25;1.00;;;;;;;25.25;51.95;100509.22;5378324;33;34378;-82
2023/08/09 11:28:36;;;;;;;1.27;1.17;;;;;;;24.87;53.37;100510.44;5379538;33;33605;-82
2023/08/09 11:31:42;;;;;;;2.87;1.33;;;;;;;24.87;55.06;100504.94;5378043;33;35109;-82
2023/08/09 11:34:45;;;;;;;1.20;0.90;;;;;;;24.94;54.85;100505.50;5377661;33;34715;-81
2023/08/09 11:37:51;;;;;;;1.62;1.40;;;;;;;24.92;54.46;100510.44;5378586;33;34829;-81
2023/08/09 11:40:54;;;;;;;4.62;1.48;;;;;;;25.00;53.71;100506.34;5378635;33;33884;-81
2023/08/09 11:43:57;;;;;;;1.62;1.33;;;;;;;25.05;55.47;100511.87;5378189;33;34421;-81
2023/08/09 11:47:01;;;;;;;1.20;1.02;;;;;;;25.25;53.00;100511.13;5378209;33;33979;-81
2023/08/09 11:50:26;;;;;;;4.97;1.30;;;;;;;24.96;52.69;100514.31;5378524;33;34624;-81
2023/08/09 11:53:31;;;;;;;2.53;1.10;;;;;;;25.18;53.08;100513.31;5379810;33;33870;-81
2023/08/09 11:56:36;;;;;;;2.00;1.30;;;;;;;25.03;50.62;100506.62;5379823;33;33905;-81
2023/08/09 11:59:42;;;;;;;2.85;1.62;;;;;;;25.02;51.40;100509.66;5379997;33;34553;-81
2023/08/09 12:02:45;;;;;;;2.95;1.05;;;;;;;24.88;53.43;100512.91;5378658;33;34058;-81
2023/08/09 12:05:52;;;;;;;1.42;0.80;;;;;;;24.91;50.21;100507.97;5351054;33;33594;-81
2023/08/09 12:08:58;;;;;;;2.87;1.12;;;;;;;24.60;50.48;100505.06;5371061;33;33639;-81
2023/08/09 12:12:11;;;;;;;2.10;1.00;;;;;;;24.57;51.95;100508.34;5364986;33;34031;-80
2023/08/09 12:15:15;;;;;;;1.23;1.00;;;;;;;24.62;50.29;100509.22;5361071;33;33529;-81
2023/08/09 12:18:18;;;;;;;0.82;0.82;;;;;;;24.66;50.56;100513.09;5360324;33;33878;-81
2023/08/09 12:21:21;;;;;;;0.88;0.88;;;;;;;24.62;50.87;100511.97;5361265;33;33513;-81
2023/08/09 12:24:24;;;;;;;1.73;0.82;;;;;;;24.34;50.90;100515.94;5363661;33;35467;-81
2023/08/09 12:27:27;;;;;;;0.90;0.80;;;;;;;24.08;51.93;100514.94;5366140;33;34602;-81
2023/08/09 12:30:30;;;;;;;1.48;1.02;;;;;;;24.03;52.70;100508.56;5360553;33;34821;-81
2023/08/09 12:33:33;;;;;;;0.82;0.80;;;;;;;24.09;52.40;100513.84;5359460;33;33509;-81
2023/08/09 12:36:36;;;;;;;1.02;0.90;;;;;;;24.21;53.05;100513.62;5359484;33;34730;-81
2023/08/09 12:39:39;;;;;;;1.02;0.93;;;;;;;24.38;51.75;100513.47;5359790;33;33822;-81
2023/08/09 12:42:42;;;;;;;1.62;1.00;;;;;;;24.55;52.22;100516.09;5360902;33;34405;-81
2023/08/09 12:45:45;;;;;;;1.50;0.90;;;;;;;24.89;53.38;100510.97;5360007;33;33666;-85
2023/08/09 12:48:48;;;;;;;3.10;0.90;;;;;;;25.40;48.85;100513.09;5377196;33;34563;-84
2023/08/09 12:51:51;;;;;;;2.33;0.90;;;;;;;26.03;47.26;100508.16;5377406;33;33359;-85
2023/08/09 12:54:54;;;;;;;2.95;0.90;;;;;;;26.14;45.29;100509.81;5375675;33;33727;-85
2023/08/09 12:57:57;;;;;;;2.47;1.00;;;;;;;26.06;45.25;100512.28;5377163;33;33637;-82
2023/08/09 13:01:00;;;;;;;2.17;0.98;;;;;;;26.00;46.38;100497.69;5378698;33;34742;-81
2023/08/09 13:04:05;;;;;;;1.70;0.70;;;;;;;26.42;45.82;100502.84;5378753;33;34314;-81
2023/08/09 13:07:08;;;;;;;0.98;0.90;;;;;;;26.68;44.01;100497.28;5378294;33;33863;-81
2023/08/09 13:10:11;;;;;;;2.00;1.00;;;;;;;26.74;45.05;100504.44;5379305;33;33525;-81
2023/08/09 13:13:15;;;;;;;1.50;0.65;;;;;;;26.89;46.84;100498.00;5372234;33;34275;-81
2023/08/09 13:16:18;;;;;;;1.70;1.02;;;;;;;27.12;43.48;100499.28;5377687;33;35204;-81
2023/08/09 13:19:21;;;;;;;1.23;0.82;;;;;;;26.76;44.28;100487.56;5365940;33;36808;-81
2023/08/09 13:22:24;;;;;;;2.70;0.95;;;;;;;26.61;45.28;100480.16;5359151;33;34857;-81
2023/08/09 13:25:27;;;;;;;1.25;0.70;;;;;;;26.92;43.89;100481.69;5359559;33;34759;-81
2023/08/09 13:28:30;;;;;;;1.10;1.00;;;;;;;26.99;44.73;100483.31;5367643;33;34759;-81
2023/08/09 13:31:33;;;;;;;1.95;1.10;;;;;;;26.84;45.34;100474.00;5362651;33;33883;-81
2023/08/09 13:34:36;;;;;;;1.75;1.00;;;;;;;27.40;44.52;100485.84;5359971;33;34737;-81
2023/08/09 13:37:39;;;;;;;1.35;1.02;;;;;;;28.01;40.50;100474.28;5363887;33;34803;-81
2023/08/09 13:40:44;;;;;;;1.50;1.00;;;;;;;28.17;41.54;100481.34;5364572;33;34079;-81
2023/08/09 13:43:47;;;;;;;1.33;1.05;;;;;;;27.79;41.96;100481.16;5377733;33;33744;-81
2023/08/09 13:46:50;;;;;;;3.08;1.08;;;;;;;27.49;42.71;100475.81;5376036;33;33885;-82
2023/08/09 13:49:53;;;;;;;2.47;1.48;;;;;;;26.77;45.07;100479.00;5376903;33;33467;-82
2023/08/09 13:52:56;;;;;;;1.75;1.00;;;;;;;26.91;47.14;100470.91;5377598;33;35247;-82
2023/08/09 13:55:59;;;;;;;1.52;0.90;;;;;;;27.07;46.66;100475.25;5376445;33;34707;-81
2023/08/09 13:59:02;;;;;;;1.33;1.10;;;;;;;26.95;46.55;100474.78;5364306;33;34772;-81
2023/08/09 14:02:05;;;;;;;1.37;1.10;;;;;;;26.71;44.77;100473.78;5388515;33;33809;-81
2023/08/09 14:05:09;;;;;;;1.05;0.93;;;;;;;26.36;45.77;100479.12;5375457;33;34333;-81
2023/08/09 14:08:12;;;;;;;1.42;1.08;;;;;;;25.95;46.07;100468.19;5376642;33;34606;-81
2023/08/09 14:11:15;;;;;;;1.50;0.82;;;;;;;26.04;46.50;100462.09;5377571;33;33495;-81
2023/08/09 14:14:17;;;;;;;1.42;0.70;;;;;;;26.10;48.32;100470.09;5375698;33;34732;-81
2023/08/09 14:17:21;;;;;;;5.30;1.25;;;;;;;25.92;47.05;100451.38;5377424;33;33633;-81
2023/08/09 14:20:24;;;;;;;1.20;0.90;;;;;;;25.91;47.57;100446.94;5378486;33;33884;-81
2023/08/09 14:23:28;;;;;;;1.15;1.02;;;;;;;25.94;46.65;100446.38;5366329;33;34471;-81
2023/08/09 14:26:31;;;;;;;1.58;0.88;;;;;;;25.72;48.93;100436.44;5385675;33;33502;-81
2023/08/09 14:29:41;;;;;;;2.10;0.90;;;;;;;25.77;48.88;100439.22;5360153;33;33886;-81
2023/08/09 14:32:44;;;;;;;0.90;0.90;;;;;;;25.95;49.46;100446.13;5367822;33;33484;-81
2023/08/09 14:35:47;;;;;;;1.17;0.98;;;;;;;25.95;47.66;100443.34;5360104;33;33841;-81
2023/08/09 14:38:49;;;;;;;2.08;1.35;;;;;;;25.97;48.50;100445.81;5361463;33;33441;-81
2023/08/09 14:41:53;;;;;;;2.40;1.20;;;;;;;25.68;48.14;100442.78;5361765;33;34470;-81
2023/08/09 14:44:55;;;;;;;1.40;1.00;;;;;;;25.62;49.06;100446.66;5364768;33;33784;-81
2023/08/09 14:48:00;;;;;;;1.65;1.20;;;;;;;25.54;48.22;100448.06;5363116;33;33498;-81
2023/08/09 14:51:03;;;;;;;0.85;0.80;;;;;;;25.64;49.35;100466.50;5360653;33;33532;-81
2023/08/09 14:54:07;;;;;;;3.22;1.17;;;;;;;25.92;46.46;100452.19;5361413;33;34785;-81
2023/08/09 14:57:09;;;;;;;1.50;1.05;;;;;;;25.34;48.48;100454.37;5361163;33;33706;-81
2023/08/09 15:00:17;;;;;;;1.92;1.40;;;;;;;25.23;49.61;100449.94;5351859;33;34640;-81
2023/08/09 15:03:19;;;;;;;2.92;0.90;;;;;;;25.50;54.10;100453.25;5370590;33;33889;-85
2023/08/09 15:06:22;;;;;;;0.88;0.88;;;;;;;25.66;49.92;100453.28;5358475;33;278426;-82
2023/08/09 15:09:27;;;;;;;1.02;0.82;;;;;;;26.18;46.80;100458.47;5363671;33;33815;-82
2023/08/09 15:12:30;;;;;;;1.83;1.00;;;;;;;26.25;47.04;100444.37;5365055;33;34478;-82
2023/08/09 15:15:33;;;;;;;1.87;0.80;;;;;;;26.40;47.25;100452.59;5361577;33;34511;-81
2023/08/09 15:18:36;;;;;;;1.10;1.00;;;;;;;26.46;46.48;100450.66;5360067;33;35448;-82
2023/08/09 15:21:39;;;;;;;2.20;1.00;;;;;;;26.35;48.27;100449.84;5376244;33;33701;-82
2023/08/09 15:24:42;;;;;;;2.05;0.82;;;;;;;26.21;47.39;100457.09;5378217;33;33934;-82
2023/08/09 15:27:50;;;;;;;4.05;1.00;;;;;;;25.96;47.39;100458.78;5364170;33;33982;-82
2023/08/09 15:30:56;;;;;;;1.08;1.00;;;;;;;25.67;51.45;100446.66;5359557;33;33954;-81
2023/08/09 15:33:59;;;;;;;1.58;1.12;;;;;;;25.72;49.54;100452.19;5359938;33;34247;-82
2023/08/09 15:37:03;;;;;;;3.00;0.93;;;;;;;25.85;49.20;100446.09;5348312;33;33484;-81
2023/08/09 15:40:13;;;;;;;2.28;1.10;;;;;;;25.64;52.12;100449.97;5359853;33;34041;-82
2023/08/09 15:43:16;;;;;;;1.60;1.20;;;;;;;25.16;51.58;100443.91;5359553;33;34824;-82
2023/08/09 15:46:19;;;;;;;3.40;1.42;;;;;;;24.77;53.05;100447.06;5359872;33;34651;-82
2023/08/09 15:49:22;;;;;;;2.92;1.20;;;;;;;24.51;53.43;100451.63;5359973;33;35077;-82
2023/08/09 15:52:25;;;;;;;2.72;1.10;;;;;;;24.34;52.88;100455.41;5360506;33;33866;-81
2023/08/09 15:55:29;;;;;;;1.62;1.23;;;;;;;24.15;55.12;100441.25;5360237;33;33780;-81
2023/08/09 15:58:34;;;;;;;1.50;1.40;;;;;;;24.14;55.70;100455.28;5368528;33;33843;-81
